EWG55A EDDL-LOWG
Flight info
| Callsign | EWG55A |
|---|---|
| Flight time | N/A |
| Altitude | 35000 |
| Route | N0441F350 DODEN Y853 BOMBI DCT ESATI/N0439F370 DCT BARSU DCT MOOCE DCT RUDNO DCT LAMSI DCT LEOBE |
| Aircraft | A319/M-SDE2E3FGIJ1RWXYZ/EB1 |
Departure
| Time | N/A |
|---|---|
| Airport | Düsseldorf Airport (EDDL) |
Arrival
| Time | 2026-05-04 15:19 |
|---|---|
| Airport | Graz Airport (LOWG) |
| Time | Latitude | Longitude | Altitude | Speed | Heading |
|---|---|---|---|---|---|
| 2026-05-04 14:28 | 50.06047 | 8.88081 | 34974 ft | 465 kts | 101° |
| 2026-05-04 14:28 | 50.05992 | 8.98224 | 34974 ft | 471 kts | 91° |
| 2026-05-04 14:29 | 50.06220 | 9.18527 | 34964 ft | 469 kts | 97° |
| 2026-05-04 14:30 | 50.05230 | 9.28501 | 34964 ft | 466 kts | 103° |
| 2026-05-04 14:31 | 50.03530 | 9.43426 | 34955 ft | 468 kts | 104° |
| 2026-05-04 14:32 | 50.01237 | 9.63281 | 34955 ft | 468 kts | 103° |
| 2026-05-04 14:32 | 50.00074 | 9.73234 | 34965 ft | 468 kts | 104° |
| 2026-05-04 14:33 | 49.98904 | 9.83184 | 34974 ft | 468 kts | 104° |
| 2026-05-04 14:33 | 49.97724 | 9.93119 | 34967 ft | 467 kts | 104° |
| 2026-05-04 14:34 | 49.96535 | 10.03040 | 34976 ft | 467 kts | 104° |
| 2026-05-04 14:34 | 49.95355 | 10.12884 | 34956 ft | 466 kts | 103° |
| 2026-05-04 14:35 | 49.94153 | 10.22784 | 34952 ft | 467 kts | 104° |
| 2026-05-04 14:35 | 49.92936 | 10.32693 | 34962 ft | 468 kts | 104° |
| 2026-05-04 14:36 | 49.91168 | 10.42318 | 34958 ft | 461 kts | 118° |
| 2026-05-04 14:36 | 49.88475 | 10.51266 | 34944 ft | 461 kts | 118° |
| 2026-05-04 14:37 | 49.85749 | 10.60253 | 34955 ft | 461 kts | 118° |
| 2026-05-04 14:37 | 49.83017 | 10.69237 | 34963 ft | 461 kts | 118° |
| 2026-05-04 14:38 | 49.80290 | 10.78227 | 34971 ft | 462 kts | 118° |
| 2026-05-04 14:38 | 49.77571 | 10.87152 | 34969 ft | 462 kts | 119° |
| 2026-05-04 14:39 | 49.74836 | 10.96124 | 34960 ft | 461 kts | 118° |
| 2026-05-04 14:39 | 49.72085 | 11.05082 | 34961 ft | 461 kts | 118° |
| 2026-05-04 14:40 | 49.67936 | 11.18482 | 34966 ft | 461 kts | 119° |
| 2026-05-04 14:40 | 49.65190 | 11.27345 | 34965 ft | 461 kts | 118° |
| 2026-05-04 14:41 | 49.62420 | 11.36247 | 34949 ft | 460 kts | 118° |
| 2026-05-04 14:42 | 49.56858 | 11.54035 | 34981 ft | 462 kts | 116° |
| 2026-05-04 14:42 | 49.54680 | 11.63363 | 34990 ft | 462 kts | 112° |
| 2026-05-04 14:43 | 49.52571 | 11.72640 | 34979 ft | 462 kts | 112° |
| 2026-05-04 14:43 | 49.50435 | 11.81976 | 34989 ft | 462 kts | 112° |
| 2026-05-04 14:44 | 49.48292 | 11.91293 | 34991 ft | 462 kts | 112° |
| 2026-05-04 14:44 | 49.46139 | 12.00583 | 34986 ft | 461 kts | 112° |
| 2026-05-04 14:45 | 49.43993 | 12.09809 | 34974 ft | 462 kts | 112° |
| 2026-05-04 14:45 | 49.41828 | 12.19099 | 34956 ft | 462 kts | 112° |
| 2026-05-04 14:46 | 49.39655 | 12.28385 | 34958 ft | 462 kts | 112° |
| 2026-05-04 14:46 | 49.37491 | 12.37598 | 34965 ft | 462 kts | 112° |
| 2026-05-04 14:47 | 49.35302 | 12.46855 | 34964 ft | 462 kts | 112° |
| 2026-05-04 14:47 | 49.32382 | 12.55506 | 34948 ft | 455 kts | 129° |
| 2026-05-04 14:48 | 49.28130 | 12.62582 | 34948 ft | 451 kts | 138° |
| 2026-05-04 14:48 | 49.23718 | 12.69400 | 34943 ft | 451 kts | 138° |
| 2026-05-04 14:49 | 49.19355 | 12.76193 | 34942 ft | 451 kts | 138° |
| 2026-05-04 14:49 | 49.14952 | 12.83020 | 34945 ft | 451 kts | 138° |
| 2026-05-04 14:50 | 49.10536 | 12.89818 | 34948 ft | 451 kts | 138° |
| 2026-05-04 14:50 | 49.06117 | 12.96592 | 34948 ft | 450 kts | 138° |
| 2026-05-04 14:51 | 49.01721 | 13.03308 | 34944 ft | 451 kts | 139° |
| 2026-05-04 14:51 | 48.97299 | 13.10057 | 34944 ft | 450 kts | 138° |
| 2026-05-04 14:52 | 48.92877 | 13.16797 | 34942 ft | 450 kts | 138° |
| 2026-05-04 14:52 | 48.88485 | 13.23471 | 34943 ft | 449 kts | 138° |
| 2026-05-04 14:53 | 48.84056 | 13.30175 | 34920 ft | 450 kts | 138° |
| 2026-05-04 14:53 | 48.79610 | 13.36889 | 34920 ft | 451 kts | 139° |
| 2026-05-04 14:54 | 48.75160 | 13.43597 | 34928 ft | 452 kts | 138° |
| 2026-05-04 14:54 | 48.70696 | 13.50308 | 34923 ft | 452 kts | 138° |
| 2026-05-04 14:55 | 48.66260 | 13.56946 | 34931 ft | 451 kts | 139° |
| 2026-05-04 14:55 | 48.61407 | 13.62864 | 34922 ft | 448 kts | 146° |
| 2026-05-04 14:56 | 48.56454 | 13.68557 | 34928 ft | 447 kts | 146° |
| 2026-05-04 14:56 | 48.51533 | 13.74222 | 34921 ft | 448 kts | 146° |
| 2026-05-04 14:57 | 48.46592 | 13.79901 | 34908 ft | 446 kts | 146° |
| 2026-05-04 14:57 | 48.41657 | 13.85536 | 34904 ft | 445 kts | 146° |
| 2026-05-04 14:58 | 48.36720 | 13.91174 | 34804 ft | 447 kts | 146° |
| 2026-05-04 14:58 | 48.34268 | 13.93958 | 34560 ft | 448 kts | 146° |
| 2026-05-04 14:58 | 48.31780 | 13.96784 | 34315 ft | 449 kts | 146° |
| 2026-05-04 14:59 | 48.29289 | 13.99615 | 34072 ft | 449 kts | 146° |
| 2026-05-04 14:59 | 48.26799 | 14.02444 | 33579 ft | 450 kts | 146° |
| 2026-05-04 14:59 | 48.21736 | 14.08176 | 31893 ft | 456 kts | 145° |
| 2026-05-04 15:00 | 48.19213 | 14.11026 | 31298 ft | 452 kts | 145° |
| 2026-05-04 15:00 | 48.16708 | 14.13852 | 30705 ft | 449 kts | 145° |
| 2026-05-04 15:00 | 48.14255 | 14.16615 | 30116 ft | 446 kts | 145° |
| 2026-05-04 15:01 | 48.09333 | 14.22152 | 28880 ft | 438 kts | 144° |
| 2026-05-04 15:01 | 48.06907 | 14.24878 | 28286 ft | 434 kts | 144° |
| 2026-05-04 15:01 | 48.04506 | 14.27573 | 27702 ft | 430 kts | 144° |
| 2026-05-04 15:01 | 48.02125 | 14.30241 | 27123 ft | 426 kts | 144° |
| 2026-05-04 15:02 | 47.99764 | 14.32884 | 26549 ft | 422 kts | 144° |
| 2026-05-04 15:02 | 47.97426 | 14.35499 | 25990 ft | 418 kts | 144° |
| 2026-05-04 15:02 | 47.95142 | 14.38053 | 25448 ft | 414 kts | 145° |
| 2026-05-04 15:02 | 47.92850 | 14.40612 | 24919 ft | 410 kts | 145° |
| 2026-05-04 15:03 | 47.90572 | 14.43152 | 24396 ft | 407 kts | 145° |
| 2026-05-04 15:03 | 47.88308 | 14.45672 | 23900 ft | 405 kts | 145° |
| 2026-05-04 15:03 | 47.86060 | 14.48170 | 23374 ft | 402 kts | 145° |
| 2026-05-04 15:03 | 47.83825 | 14.50650 | 22848 ft | 399 kts | 145° |
| 2026-05-04 15:04 | 47.81612 | 14.53099 | 22366 ft | 395 kts | 145° |
| 2026-05-04 15:04 | 47.79451 | 14.55492 | 21929 ft | 390 kts | 145° |
| 2026-05-04 15:04 | 47.77291 | 14.57881 | 21437 ft | 385 kts | 145° |
| 2026-05-04 15:04 | 47.75149 | 14.60246 | 20940 ft | 382 kts | 145° |
| 2026-05-04 15:05 | 47.73023 | 14.62590 | 20473 ft | 378 kts | 145° |
| 2026-05-04 15:05 | 47.70921 | 14.64910 | 19969 ft | 375 kts | 145° |
| 2026-05-04 15:05 | 47.68837 | 14.67208 | 19481 ft | 371 kts | 146° |
| 2026-05-04 15:05 | 47.66775 | 14.69482 | 18970 ft | 368 kts | 145° |
| 2026-05-04 15:06 | 47.64727 | 14.71735 | 18474 ft | 365 kts | 145° |
| 2026-05-04 15:06 | 47.62726 | 14.73933 | 17934 ft | 361 kts | 146° |
| 2026-05-04 15:06 | 47.60717 | 14.76139 | 17425 ft | 358 kts | 146° |
| 2026-05-04 15:07 | 47.56757 | 14.80478 | 16397 ft | 351 kts | 147° |
| 2026-05-04 15:07 | 47.54801 | 14.82613 | 15897 ft | 348 kts | 147° |
| 2026-05-04 15:07 | 47.52858 | 14.84732 | 15396 ft | 346 kts | 147° |
| 2026-05-04 15:07 | 47.50931 | 14.86836 | 14908 ft | 343 kts | 147° |
| 2026-05-04 15:08 | 47.49023 | 14.88924 | 14405 ft | 339 kts | 146° |
| 2026-05-04 15:08 | 47.47166 | 14.90958 | 13922 ft | 335 kts | 146° |
| 2026-05-04 15:08 | 47.45298 | 14.92999 | 13386 ft | 333 kts | 146° |
| 2026-05-04 15:08 | 47.43451 | 14.95006 | 12899 ft | 327 kts | 147° |
| 2026-05-04 15:09 | 47.41629 | 14.96982 | 12427 ft | 323 kts | 146° |
| 2026-05-04 15:09 | 47.39823 | 14.98942 | 11938 ft | 321 kts | 147° |
| 2026-05-04 15:09 | 47.38043 | 15.00905 | 11470 ft | 319 kts | 143° |
| 2026-05-04 15:10 | 47.35303 | 15.06008 | 10524 ft | 324 kts | 118° |
| 2026-05-04 15:10 | 47.34369 | 15.08972 | 10365 ft | 312 kts | 118° |
| 2026-05-04 15:10 | 47.32564 | 15.14593 | 9942 ft | 298 kts | 119° |
| 2026-05-04 15:11 | 47.31671 | 15.17343 | 9807 ft | 297 kts | 119° |
| 2026-05-04 15:11 | 47.30789 | 15.20069 | 9679 ft | 289 kts | 117° |
| 2026-05-04 15:11 | 47.30219 | 15.22824 | 9520 ft | 276 kts | 102° |
| 2026-05-04 15:11 | 47.30185 | 15.25608 | 9149 ft | 271 kts | 84° |
| 2026-05-04 15:12 | 47.30527 | 15.28323 | 8706 ft | 268 kts | 82° |
| 2026-05-04 15:12 | 47.30778 | 15.30978 | 8185 ft | 263 kts | 96° |
| 2026-05-04 15:12 | 47.30281 | 15.33479 | 7788 ft | 251 kts | 124° |
| 2026-05-04 15:12 | 47.29098 | 15.35285 | 7350 ft | 243 kts | 151° |
| 2026-05-04 15:13 | 47.27533 | 15.36092 | 6935 ft | 238 kts | 171° |
| 2026-05-04 15:13 | 47.25916 | 15.36536 | 6579 ft | 236 kts | 170° |
| 2026-05-04 15:13 | 47.24291 | 15.36987 | 6232 ft | 239 kts | 170° |
| 2026-05-04 15:13 | 47.22656 | 15.37441 | 5868 ft | 238 kts | 170° |
| 2026-05-04 15:14 | 47.21066 | 15.37886 | 5534 ft | 232 kts | 169° |
| 2026-05-04 15:14 | 47.19495 | 15.38323 | 5232 ft | 227 kts | 170° |
| 2026-05-04 15:14 | 47.17965 | 15.38749 | 4919 ft | 220 kts | 171° |
| 2026-05-04 15:14 | 47.16490 | 15.39162 | 4642 ft | 211 kts | 169° |
| 2026-05-04 15:15 | 47.15092 | 15.39551 | 4371 ft | 199 kts | 170° |
| 2026-05-04 15:15 | 47.13779 | 15.39912 | 4137 ft | 186 kts | 169° |
| 2026-05-04 15:15 | 47.12554 | 15.40248 | 3901 ft | 171 kts | 170° |
| 2026-05-04 15:16 | 47.10333 | 15.40862 | 3452 ft | 161 kts | 172° |
| 2026-05-04 15:16 | 47.09246 | 15.41163 | 3241 ft | 155 kts | 173° |
| 2026-05-04 15:16 | 47.07355 | 15.41697 | 2787 ft | 129 kts | 171° |
| 2026-05-04 15:17 | 47.06491 | 15.41939 | 2562 ft | 124 kts | 173° |
| 2026-05-04 15:17 | 47.04807 | 15.42425 | 2144 ft | 123 kts | 169° |
| 2026-05-04 15:17 | 47.03961 | 15.42665 | 1902 ft | 129 kts | 172° |
| 2026-05-04 15:18 | 47.03092 | 15.42887 | 1746 ft | 127 kts | 173° |
| 2026-05-04 15:18 | 47.02229 | 15.43102 | 1530 ft | 125 kts | 168° |
| 2026-05-04 15:18 | 47.01388 | 15.43341 | 1371 ft | 124 kts | 167° |
| 2026-05-04 15:19 | 46.99701 | 15.43803 | 1112 ft | 111 kts | 169° |
| 2026-05-04 15:19 | 46.99109 | 15.43962 | 1104 ft | 62 kts | 169° |
| 2026-05-04 15:19 | 46.98570 | 15.44099 | 1101 ft | 15 kts | 189° |
| 2026-05-04 15:20 | 46.98541 | 15.44122 | 1099 ft | 2 kts | 23° |
| 2026-05-04 15:20 | 46.98584 | 15.44110 | 1101 ft | 11 kts | 349° |
| 2026-05-04 15:20 | 46.98688 | 15.44080 | 1101 ft | 18 kts | 348° |
| 2026-05-04 15:20 | 46.98828 | 15.44041 | 1104 ft | 23 kts | 349° |
| 2026-05-04 15:21 | 46.99002 | 15.43993 | 1105 ft | 27 kts | 349° |
| 2026-05-04 15:21 | 46.99166 | 15.43948 | 1104 ft | 15 kts | 349° |
| 2026-05-04 15:21 | 46.99328 | 15.44081 | 1104 ft | 17 kts | 46° |
| 2026-05-04 15:22 | 46.99411 | 15.44208 | 1111 ft | 16 kts | 46° |
| 2026-05-04 15:22 | 46.99485 | 15.44262 | 1109 ft | 12 kts | 350° |
| 2026-05-04 15:22 | 46.99615 | 15.44225 | 1107 ft | 8 kts | 349° |
| 2026-05-04 15:23 | 46.99621 | 15.44261 | 1112 ft | 5 kts | 125° |
| 2026-05-04 15:23 | 46.99596 | 15.44307 | 1106 ft | 6 kts | 127° |
| 2026-05-04 15:23 | 46.99587 | 15.44325 | 1107 ft | 0 kts | 127° |